INFORMACIÓN METAR y TAF
METAR FOR BIKF
ADDS - METARS form results

(1944 UTC 04 June 2020)
Data provider http://aviationweather.gov/metar/data/
 
METAR text: BIKF 041930Z 01021KT CAVOK 09/02 Q1019
Conditions at: BIKF (KEFLAVIK (CIV/MI, IS) observed 1930 UTC 04 June 2020
Temperature: 9.0°C (48°F)
Dewpoint: 2.0°C (36°F) [RH = 61%]
Pressure (altimeter): 30.09 inches Hg (1019.0 mb)
Winds: from the N (10 degrees) at 24 MPH (21 knots; 10.8 m/s)
Visibility: 6 or more miles (10+ km)
Ceiling: ceiling and visibility are OK
Clouds: unknown
Weather: no significant weather observed at this time

METAR text: BIKF 041900Z 01023KT CAVOK 09/03 Q1018
Conditions at: BIKF (KEFLAVIK (CIV/MI, IS) observed 1900 UTC 04 June 2020
Temperature: 9.0°C (48°F)
Dewpoint: 3.0°C (37°F) [RH = 66%]
Pressure (altimeter): 30.06 inches Hg (1018.0 mb)
Winds: from the N (10 degrees) at 26 MPH (23 knots; 11.8 m/s)
Visibility: 6 or more miles (10+ km)
Ceiling: ceiling and visibility are OK
Clouds: unknown
Weather: no significant weather observed at this time

Forecast for: BIKF (KEFLAVIK (CIV/MI, IS)
Text: TAF BIKF 041923Z 0421/0521 02023KT 9999 FEW030 TX10/0515Z TN03/0506Z
Forecast period: 2100 UTC 04 June 2020 to 2100 UTC 05 June 2020
Forecast type: FROM: standard forecast or significant change
Winds: from the NNE (20 degrees) at 26 MPH (23 knots; 11.8 m/s)
Visibility: 6 or more miles 10+ km)
Ceiling: at least 12,000 feet AGL
Clouds: few clouds at 3000 feet AGL
Weather: no significant weather forecast for this period

 MAPA DE AEROPUERTO

 INFORMACIÓN DE PISTA
Pista 02 Longitud 10019 ft Ancho 197 ft
Elevación 137 ft Umbral desplazado 19 ft Rumbo de pista 360
Pista 20 Longitud 10019 ft Ancho 197 ft
Elevación 163 ft Umbral desplazado 19 ft Rumbo de pista 180
Pista 11 Longitud 10056 ft Ancho 197 ft
Elevación 111 ft Umbral desplazado 43 ft Rumbo de pista 90
Pista 29 Longitud 10056 ft Ancho 197 ft
Elevación 171 ft Umbral desplazado 43 ft Rumbo de pista 270

 FRECUANCIAS DEL AEROPUERTO
Tipo A/G Nombre AIR GND Frecuencia 131.9 MHZ
Tipo APP Nombre APP Frecuencia 119.3 MHZ
Tipo ATIS Nombre ATIS Frecuencia 128.3 MHZ
Tipo DEP Nombre DEP Frecuencia 119.3 MHZ
Tipo GND Nombre GND Frecuencia 121.9 MHZ
Tipo OPS Nombre BASE OPS Frecuencia 129 MHZ
Tipo PMSV Nombre PMSV METR Frecuencia 125 MHZ
Tipo TWR Nombre TWR Frecuencia 118.3 MHZ

 RADIO AYUDAS DEL AEROPUERTO
Tipo VORTAC Nombre Keflavik Frecuencia 112000 KHZ
Tipo NDB Nombre Keflavik Frecuencia 392 KHZ
Tipo NDB Nombre Oscar Kilo Frecuencia 364 KHZ